Terminal Aerodrome Forecast
Issued by NWS Sioux Falls, SD

Home | Current Version | Previous Version | Graphics & Text | Print | Product List | Glossary Off
Versions: 1 2 3 4 5 6 7 8 9 10 11 12 13 14 15 16

000
FTUS43 KFSD 181131
TAFFSD
TAF
KFSD 181131Z 1812/1912 VRB03KT P6SM SCT090
     FM181700 20005KT P6SM SCT025 SCT200
     FM182000 29007KT P6SM SCT250
     FM182300 33011KT P6SM FEW250
     FM190200 35007KT P6SM FEW250
     FM190600 VRB03KT P6SM SKC
     FM190900 00000KT 4SM BR FEW003
     FM191000 00000KT 1 1/2SM BR FEW003=

USA.gov is the U.S. government's official web portal to all federal, state and local government web resources and services.